• Join FlightAware (Why Join?)
  • Login
  • US Flag 
10:34AM EDT


 

Airport Tracker/Info


-or-


 

Live Flight TrackerFlight Track Log ✈ UPS2038 ✈ 18-Sep-2013 ✈ KDFW - KEWR

Flight Track Log - Related Links

Times and Time Zones

All times are in EDT time to prevent confusion due to time zone crossing. See the UPS2038 flight status page for this flight to view local times or setup timezone preferences in your user account.

Time Position Orientation Groundspeed Altitude Reporting Facility
EDT Latitude Longitude Course Direction KTS MPH feet Rate Location/Type
04:16PM 32.8800 -97.0310 181° South 162 186 2,000  Level FlightAware
04:17PM 32.8540 -97.0280 174° South 164 189 3,600 2,340 Climbing FlightAware
04:17PM 32.8380 -97.0200 157° South 187 215 4,200 1,740 Climbing FlightAware
04:18PM 32.8250 -97.0130 156° South 214 246 4,600 1,740 Climbing FlightAware
04:18PM 32.8020 -97.0030 160° South 249 287 5,300 2,220 Climbing FlightAware
04:18PM 32.7890 -96.9970 159° South 254 292 5,900 3,300 Climbing FlightAware
04:18PM 32.7820 -96.9900 140° Southeast 258 297 6,400 3,480 Climbing FlightAware
04:18PM 32.7760 -96.9810 128° Southeast 262 302 6,900 3,180 Climbing FlightAware
04:18PM 32.7740 -96.9770 121° Southeast 263 303 7,100 3,840 Climbing FlightAware
04:19PM 32.7630 -96.9430 111° Southeast 270 311 8,700 3,960 Climbing FlightAware
04:19PM 32.7630 -96.9370 90° East 272 313 8,900 3,180 Climbing FlightAware
04:19PM 32.7650 -96.8910 87° East 293 337 10,400 2,160 Climbing FlightAware
04:20PM 32.7710 -96.8270 84° East 347 399 11,300 1,440 Climbing FlightAware
04:20PM 32.7840 -96.7910 67° East 374 430 11,800 2,160 Climbing FlightAware
04:21PM 32.8130 -96.7210 64° Northeast 400 460 13,300 2,580 Climbing FlightAware
04:22PM 32.8420 -96.6490 64° Northeast 413 475 14,900 2,580 Climbing FlightAware
04:22PM 32.8730 -96.5730 64° Northeast 428 493 16,400 2,520 Climbing FlightAware
04:23PM 32.9000 -96.5040 65° Northeast 439 505 17,800 2,460 Climbing FlightAware
04:23PM 32.9310 -96.4270 64° Northeast 448 516 19,200 2,220 Climbing FlightAware
04:24PM 32.9560 -96.3590 66° East 459 528 20,300 2,340 Climbing FlightAware
04:24PM 32.9800 -96.2580 74° East 466 536 22,000 3,000 Climbing FlightAware
04:25PM 32.9920 -96.1700 81° East 449 517 24,100 2,700 Climbing FlightAware
04:26PM 33.0030 -96.0900 81° East 460 529 25,100 1,020 Climbing FlightAware
04:26PM 33.0160 -95.9960 81° East 491 565 25,300 780 Climbing FlightAware
04:27PM 33.0270 -95.8960 82° East 506 582 26,100 1,320 Climbing FlightAware
04:27PM 33.0350 -95.8140 83° East 513 590 26,800 1,380 Climbing FlightAware
04:28PM 33.0480 -95.6930 83° East 524 603 27,800 1,560 Climbing FlightAware
04:28PM 33.0550 -95.6230 83° East 522 601 28,600 2,100 Climbing FlightAware
04:29PM 33.0680 -95.5010 83° East 514 592 30,200 2,100 Climbing FlightAware
04:30PM 33.0794 -95.3949 83° East 522 601 31,400 1,800 Climbing FlightAware ADS-B
04:30PM 33.0880 -95.3100 83° East 506 582 32,300 1,680 Climbing FlightAware
04:30PM 33.0917 -95.2775 82° East 507 583 32,600 1,500 Climbing FlightAware ADS-B
04:31PM 33.1077 -95.1230 83° East 503 579 34,000 1,260 Climbing FlightAware ADS-B
04:32PM 33.1190 -95.0180 83° East 503 579 34,600 780 Climbing FlightAware
04:33PM 33.1290 -94.9170 83° East 503 579 35,000 300 Climbing FlightAware
04:33PM 33.1370 -94.8390 83° East 501 577 35,000  Level FlightAware
04:33PM 33.1403 -94.8023 84° East 500 575 35,000  Level FlightAware ADS-B
04:34PM 33.1512 -94.6905 83° East 504 580 35,000  Level FlightAware ADS-B
04:35PM 33.1603 -94.5992 83° East 505 581 35,000  Level FlightAware ADS-B
04:35PM 33.1688 -94.5113 83° East 506 582 35,000  Level FlightAware ADS-B
04:36PM 33.1775 -94.4214 83° East 507 583 35,000  Level FlightAware ADS-B
04:36PM 33.1857 -94.3352 83° East 507 583 35,000  Level FlightAware ADS-B
04:37PM 33.1960 -94.2320 83° East 506 582 35,000  Level FlightAware
04:37PM 33.2060 -94.1200 84° East 504 580 35,000  Level FlightAware
04:38PM 33.2170 -94.0110 83° East 503 579 35,000  Level FlightAware
04:39PM 33.2250 -93.9260 84° East 503 579 35,000  Level FlightAware
04:40PM 33.2386 -93.7690 84° East 504 580 35,000  Level FlightAware ADS-B
04:40PM 33.2500 -93.6430 84° East 503 579 35,000  Level FlightAware
04:41PM 33.2580 -93.5540 84° East 502 578 35,000  Level FlightAware
04:41PM 33.2670 -93.4540 84° East 501 577 35,000  Level FlightAware
04:42PM 33.2760 -93.3600 83° East 501 577 35,000  Level FlightAware
04:43PM 33.2850 -93.2750 83° East 501 577 35,000  Level FlightAware
04:43PM 33.2940 -93.1890 83° East 501 577 35,000  Level FlightAware
04:44PM 33.3020 -93.1090 83° East 501 577 35,000  Level FlightAware
04:45PM 33.3110 -93.0250 83° East 501 577 35,000  Level FlightAware
04:45PM 33.3190 -92.9410 83° East 501 577 35,000  Level FlightAware
04:46PM 33.3280 -92.8540 83° East 501 577 35,000  Level FlightAware
04:46PM 33.3360 -92.7750 83° East 501 577 35,000  Level FlightAware
04:47PM 33.3470 -92.6670 83° East 501 577 35,000  Level FlightAware
04:48PM 33.3560 -92.5800 83° East 501 577 35,000  Level FlightAware
04:48PM 33.3650 -92.4940 83° East 501 577 35,000  Level FlightAware
04:49PM 33.3670 -92.2520 89° East 35,000  Level FlightAware
04:50PM 33.3780 -92.1140 85° East 504 580 35,000  Level FlightAware
04:50PM 33.3870 -91.9880 85° East 504 580 35,000  Level FlightAware
04:51PM 33.3940 -91.9010 84° East 504 580 35,000  Level FlightAware
04:52PM 33.4000 -91.8160 85° East 504 580 35,000  Level FlightAware
04:52PM 33.4060 -91.7310 85° East 504 580 35,000  Level FlightAware
04:53PM 33.4120 -91.6460 85° East 504 580 35,000  Level FlightAware
04:53PM 33.4190 -91.5560 85° East 504 580 35,000  Level FlightAware
04:54PM 33.4250 -91.4660 85° East 504 580 35,000  Level FlightAware
04:55PM 33.4320 -91.3810 84° East 504 580 35,000  Level FlightAware
04:55PM 33.4380 -91.2930 85° East 504 580 35,000  Level FlightAware
04:56PM 33.4440 -91.2080 85° East 504 580 35,000  Level FlightAware
04:57PM 33.4510 -91.1200 85° East 504 580 35,000  Level FlightAware
04:57PM 33.4570 -91.0350 85° East 504 580 35,000  Level FlightAware
04:58PM 33.4630 -90.9480 85° East 504 580 35,000  Level FlightAware
04:58PM 33.4690 -90.8670 85° East 504 580 35,000  Level FlightAware
04:59PM 33.4750 -90.7820 85° East 504 580 35,000  Level FlightAware
05:00PM 33.4810 -90.7010 85° East 504 580 35,000  Level FlightAware
05:01PM 33.5069 -90.2675 85° East 501 577 35,000  Level Memphis Center
05:07PM 33.5660 -89.2540 85° East 503 579 35,000  Level FlightAware
05:07PM 33.5700 -89.1720 87° East 502 578 35,000  Level FlightAware
05:08PM 33.5760 -89.0690 86° East 504 580 35,000  Level FlightAware
05:08PM 33.5800 -88.9920 86° East 504 580 35,000  Level FlightAware
05:09PM 33.5850 -88.8910 87° East 504 580 35,000  Level FlightAware
05:09PM 33.5900 -88.7850 87° East 503 579 35,000  Level FlightAware
05:10PM 33.5950 -88.6950 86° East 502 578 35,000  Level FlightAware
05:11PM 33.5990 -88.6030 87° East 501 577 35,000  Level FlightAware
05:11PM 33.6030 -88.5220 87° East 501 577 35,000  Level FlightAware
05:12PM 33.6080 -88.4140 87° East 501 577 35,000  Level FlightAware
05:12PM 33.6130 -88.3150 87° East 501 577 35,000  Level FlightAware
05:13PM 33.6180 -88.2120 87° East 502 578 35,000  Level FlightAware
05:14PM 33.6230 -88.1020 87° East 503 579 35,000  Level FlightAware
05:14PM 33.6270 -87.9970 87° East 504 580 35,000  Level FlightAware
05:15PM 33.6310 -87.9100 87° East 505 581 35,000  Level FlightAware
05:15PM 33.6350 -87.8060 87° East 505 581 35,000  Level FlightAware
05:16PM 33.6400 -87.7060 87° East 505 581 35,000  Level FlightAware
05:17PM 33.6430 -87.6210 88° East 505 581 35,000  Level FlightAware
05:17PM 33.6470 -87.5350 87° East 505 581 35,000  Level FlightAware
05:18PM 33.6510 -87.4490 87° East 505 581 35,000  Level FlightAware
05:18PM 33.7060 -87.3040 65° Northeast 495 570 35,000  Level FlightAware
05:19PM 33.7400 -87.2110 66° East 495 570 35,000  Level FlightAware
05:20PM 33.7710 -87.1240 67° East 495 570 35,000  Level FlightAware
05:20PM 33.8020 -87.0360 67° East 493 567 35,000  Level FlightAware
05:21PM 33.8350 -86.9420 67° East 494 568 35,000  Level FlightAware
05:21PM 33.8610 -86.8690 67° East 495 570 35,000  Level FlightAware
05:22PM 33.9120 -86.7280 66° East 496 571 35,000  Level FlightAware
05:23PM 33.9410 -86.6480 66° East 496 571 35,000  Level FlightAware
05:24PM 33.9710 -86.5690 65° Northeast 496 571 35,000  Level FlightAware
05:24PM 33.9980 -86.4960 66° East 496 571 35,000  Level FlightAware
05:25PM 34.0260 -86.4180 67° East 496 571 35,000  Level FlightAware
05:25PM 34.0550 -86.3410 66° East 496 571 35,000  Level FlightAware
05:26PM 34.0830 -86.2630 67° East 496 571 35,000  Level FlightAware
05:27PM 34.1120 -86.1860 66° East 496 571 35,000  Level FlightAware
05:27PM 34.1400 -86.1080 67° East 496 571 35,000  Level FlightAware
05:28PM 34.1690 -86.0310 66° East 496 571 35,000  Level FlightAware
05:29PM 34.2460 -85.7640 71° East 497 572 35,000  Level FlightAware
05:29PM 34.2740 -85.6860 67° East 497 572 35,000  Level FlightAware
05:30PM 34.3150 -85.5610 68° East 497 572 35,000  Level FlightAware
05:30PM 34.3256 -85.5302 67° East 498 573 35,000  Level FlightAware ADS-B
05:31PM 34.3580 -85.4380 67° East 499 574 35,000  Level FlightAware
05:31PM 34.3740 -85.3870 69° East 498 573 35,000  Level FlightAware ADS-B
05:32PM 34.4016 -85.3053 68° East 497 572 35,000  Level FlightAware ADS-B
05:32PM 34.4500 -85.1620 68° East 497 572 35,000  Level FlightAware
05:33PM 34.4662 -85.1129 68° East 497 572 35,000  Level FlightAware ADS-B
05:33PM 34.4922 -85.0353 68° East 498 573 35,000  Level FlightAware ADS-B
05:34PM 34.5278 -84.9285 68° East 499 574 35,000  Level FlightAware ADS-B
05:35PM 34.5590 -84.8343 68° East 499 574 35,000  Level FlightAware ADS-B
05:35PM 34.5846 -84.7567 68° East 494 568 35,000  Level FlightAware ADS-B
05:36PM 34.6101 -84.6796 68° East 493 567 35,000  Level FlightAware ADS-B
05:36PM 34.6368 -84.5989 68° East 493 567 35,000  Level FlightAware ADS-B
05:37PM 34.6624 -84.5206 68° East 492 566 35,000  Level FlightAware ADS-B
05:37PM 34.6891 -84.4394 68° East 492 566 35,000  Level FlightAware ADS-B
05:38PM 34.7145 -84.3615 68° East 491 565 35,000  Level FlightAware ADS-B
05:38PM 34.7402 -84.2827 68° East 490 564 35,000  Level FlightAware ADS-B
05:39PM 34.7666 -84.2018 68° East 491 565 35,000  Level FlightAware ADS-B
05:39PM 34.7923 -84.1231 68° East 493 567 35,000  Level FlightAware ADS-B
05:40PM 34.8174 -84.0454 69° East 496 571 35,000  Level FlightAware ADS-B
05:40PM 34.8430 -83.9664 68° East 496 571 35,000  Level FlightAware ADS-B
05:41PM 34.8681 -83.8883 69° East 496 571 35,000  Level FlightAware ADS-B
05:41PM 34.8950 -83.8043 69° East 494 568 35,000  Level FlightAware ADS-B
05:42PM 34.9208 -83.7237 69° East 492 566 35,000  Level FlightAware ADS-B
05:42PM 34.9461 -83.6446 69° East 492 566 35,000  Level FlightAware ADS-B
05:43PM 34.9716 -83.5645 69° East 492 566 35,000  Level FlightAware ADS-B
05:43PM 34.9964 -83.4867 69° East 492 566 35,000  Level FlightAware ADS-B
05:44PM 35.0242 -83.3986 69° East 494 568 35,000  Level FlightAware ADS-B
05:44PM 35.0490 -83.3199 69° East 495 570 35,000  Level FlightAware ADS-B
05:45PM 35.0738 -83.2411 69° East 494 568 35,000  Level FlightAware ADS-B
05:45PM 35.0985 -83.1626 69° East 493 567 35,000  Level FlightAware ADS-B
05:46PM 35.1246 -83.0797 69° East 493 567 35,000  Level FlightAware ADS-B
05:46PM 35.1491 -83.0011 69° East 492 566 35,000  Level FlightAware ADS-B
05:47PM 35.1736 -82.9223 69° East 491 565 35,000  Level FlightAware ADS-B
05:47PM 35.1986 -82.8416 69° East 492 566 35,000  Level FlightAware ADS-B
05:48PM 35.2234 -82.7620 69° East 494 568 35,000  Level FlightAware ADS-B
05:48PM 35.2489 -82.6797 69° East 493 567 35,000  Level FlightAware ADS-B
05:49PM 35.2759 -82.5929 69° East 493 567 35,000  Level FlightAware ADS-B
05:50PM 35.3227 -82.4401 69° East 492 566 35,000  Level FlightAware ADS-B
05:51PM 35.3478 -82.3579 69° East 492 566 35,000  Level FlightAware ADS-B
05:51PM 35.3717 -82.2797 69° East 493 567 35,000  Level FlightAware ADS-B
05:52PM 35.3958 -82.2006 69° East 493 567 35,000  Level FlightAware ADS-B
05:52PM 35.4206 -82.1183 70° East 493 567 35,000  Level FlightAware ADS-B
05:53PM 35.4446 -82.0391 70° East 491 565 35,000 300 Level FlightAware ADS-B
05:53PM 35.4685 -81.9596 70° East 493 567 35,300 780 Climbing FlightAware ADS-B
05:54PM 35.4922 -81.8808 70° East 492 566 35,800 960 Climbing FlightAware ADS-B
05:54PM 35.5163 -81.8005 70° East 493 567 36,300 960 Climbing FlightAware ADS-B
05:55PM 35.5406 -81.7197 70° East 493 567 36,800 660 Climbing FlightAware ADS-B
05:55PM 35.5642 -81.6406 70° East 495 570 37,000 180 Climbing FlightAware ADS-B
05:56PM 35.5886 -81.5588 70° East 495 570 37,000  Level FlightAware ADS-B
05:56PM 35.6120 -81.4797 70° East 492 566 37,000  Level FlightAware ADS-B
05:57PM 35.6383 -81.3909 70° East 490 564 37,000  Level FlightAware ADS-B
05:58PM 35.6814 -81.2446 70° East 489 563 37,000  Level FlightAware ADS-B
05:58PM 35.7049 -81.1641 70° East 489 563 37,000  Level FlightAware ADS-B
05:59PM 35.7300 -81.0790 70° East 492 566 37,000  Level FlightAware
06:00PM 35.7720 -80.9330 70° East 489 563 37,000  Level FlightAware
06:00PM 35.7828 -80.8963 70° East 490 564 37,000  Level FlightAware ADS-B
06:01PM 35.7700 -80.9410 251° West 491 565 37,000  Level FlightAware
06:02PM 35.8620 -80.6210 70° East 492 566 37,000  Level FlightAware
06:02PM 35.8890 -80.5290 70° East 490 564 37,000  Level FlightAware
06:03PM 35.9200 -80.4230 70° East 489 563 37,000  Level FlightAware
06:03PM 35.9440 -80.3340 72° East 488 562 37,000  Level FlightAware
06:04PM 35.9710 -80.2400 70° East 489 563 37,000  Level FlightAware
06:05PM 35.9990 -80.1410 71° East 489 563 37,000  Level FlightAware
06:05PM 36.0270 -80.0440 70° East 489 563 37,000  Level FlightAware
06:06PM 36.0710 -79.9300 64° Northeast 495 570 37,000  Level FlightAware
06:07PM 36.1150 -79.8490 56° Northeast 477 549 37,000  Level FlightAware
06:07PM 36.1590 -79.7740 54° Northeast 476 548 37,000  Level FlightAware
06:08PM 36.2050 -79.6940 55° Northeast 478 550 37,000  Level FlightAware
06:08PM 36.2510 -79.6130 55° Northeast 483 556 37,000  Level FlightAware
06:09PM 36.2950 -79.5350 55° Northeast 481 554 37,000  Level FlightAware
06:10PM 36.3400 -79.4550 55° Northeast 482 555 37,000  Level FlightAware
06:10PM 36.3830 -79.3790 55° Northeast 481 554 37,000  Level FlightAware
06:11PM 36.4360 -79.2840 55° Northeast 482 555 37,000  Level FlightAware
06:11PM 36.4840 -79.1980 55° Northeast 484 557 37,000  Level FlightAware
06:12PM 36.5240 -79.1250 56° Northeast 484 557 37,000  Level FlightAware
06:13PM 36.5690 -79.0450 55° Northeast 483 556 37,000  Level FlightAware
06:13PM 36.6180 -78.9560 56° Northeast 485 558 37,000  Level FlightAware
06:14PM 36.6720 -78.8580 55° Northeast 486 559 37,000  Level FlightAware
06:14PM 36.7140 -78.7820 55° Northeast 486 559 37,000  Level FlightAware
06:15PM 36.7570 -78.7030 56° Northeast 486 559 37,000  Level FlightAware
06:16PM 36.8060 -78.6170 55° Northeast 485 558 37,000  Level FlightAware
06:16PM 36.8490 -78.5630 45° Northeast 478 550 37,000  Level FlightAware
06:17PM 36.9080 -78.4990 41° Northeast 475 547 37,000  Level FlightAware
06:17PM 36.9680 -78.4350 40° Northeast 473 544 37,000  Level FlightAware
06:18PM 37.0180 -78.3810 41° Northeast 473 544 37,000  Level FlightAware
06:18PM 37.0850 -78.3100 40° Northeast 476 548 37,000  Level FlightAware
06:19PM 37.1410 -78.2490 41° Northeast 478 550 37,000  Level FlightAware
06:20PM 37.2180 -78.1660 41° Northeast 478 550 37,000  Level FlightAware
06:20PM 37.2770 -78.1010 41° Northeast 479 551 37,000  Level FlightAware
06:21PM 37.3420 -78.0310 41° Northeast 479 551 37,000  Level FlightAware
06:22PM 37.3970 -77.9710 41° Northeast 479 551 37,000  Level FlightAware
06:22PM 37.4600 -77.9020 41° Northeast 478 550 37,000  Level FlightAware
06:23PM 37.5140 -77.8430 41° Northeast 478 550 37,000  Level FlightAware
06:23PM 37.5740 -77.7840 38° Northeast 474 545 37,000  Level FlightAware
06:24PM 37.6380 -77.7270 35° Northeast 473 544 37,000  Level FlightAware
06:24PM 37.7000 -77.6720 35° Northeast 472 543 37,000  Level FlightAware
06:25PM 37.7630 -77.6150 36° Northeast 474 545 37,000  Level FlightAware
06:26PM 37.8280 -77.5560 36° Northeast 474 545 37,000  Level FlightAware
06:26PM 37.8860 -77.5030 36° Northeast 474 545 37,000  Level FlightAware
06:27PM 37.9420 -77.4510 36° Northeast 472 543 37,000  Level FlightAware
06:27PM 38.0100 -77.3900 35° Northeast 472 543 37,000  Level FlightAware
06:28PM 38.0730 -77.3320 36° Northeast 472 543 37,000  Level FlightAware
06:29PM 38.1380 -77.2730 36° Northeast 472 543 37,000  Level FlightAware
06:29PM 38.1960 -77.2180 37° Northeast 473 544 37,000  Level FlightAware
06:30PM 38.2600 -77.1590 36° Northeast 474 545 37,000  Level FlightAware
06:30PM 38.3250 -77.1000 35° Northeast 474 545 37,000  Level FlightAware
06:31PM 38.3870 -77.0420 36° Northeast 473 544 37,000  Level FlightAware
06:31PM 38.4450 -76.9890 36° Northeast 473 544 37,000  Level FlightAware
06:32PM 38.5070 -76.9310 36° Northeast 473 544 37,000  Level FlightAware
06:33PM 38.5720 -76.8690 37° Northeast 473 544 37,000  Level FlightAware
06:33PM 38.6270 -76.8180 36° Northeast 472 543 37,000  Level FlightAware
06:34PM 38.6910 -76.7580 36° Northeast 472 543 37,000  Level FlightAware
06:34PM 38.7520 -76.6910 41° Northeast 479 551 37,000  Level FlightAware
06:35PM 38.8110 -76.6230 42° Northeast 481 554 37,000 -180 Level FlightAware
06:36PM 38.8640 -76.5620 42° Northeast 477 549 36,800 -1,920 Descending FlightAware
06:36PM 38.9250 -76.4920 42° Northeast 474 545 34,800 -3,120 Descending FlightAware
06:37PM 38.9860 -76.4220 42° Northeast 480 552 33,000 -3,000 Descending FlightAware
06:37PM 39.0370 -76.3620 42° Northeast 485 558 31,400 -2,760 Descending FlightAware
06:38PM 39.1010 -76.2880 42° Northeast 477 549 29,800 -2,400 Descending FlightAware
06:38PM 39.1530 -76.2270 42° Northeast 469 540 28,600 -2,160 Descending FlightAware
06:39PM 39.2060 -76.1640 43° Northeast 458 527 27,400 -1,440 Descending FlightAware
06:40PM 39.2570 -76.1060 41° Northeast 448 516 27,000 -360 Descending FlightAware
06:40PM 39.3100 -76.0430 43° Northeast 448 516 27,000 -360 Level FlightAware
06:41PM 39.3730 -75.9690 42° Northeast 446 513 26,600 -1,380 Descending FlightAware
06:41PM 39.4220 -75.9100 43° Northeast 438 504 25,400 -2,160 Descending FlightAware
06:42PM 39.4770 -75.8450 42° Northeast 432 497 24,100 -1,860 Descending FlightAware
06:43PM 39.5220 -75.7920 42° Northeast 428 493 23,300 -1,500 Descending FlightAware
06:43PM 39.5730 -75.7310 43° Northeast 420 483 22,400 -1,560 Descending FlightAware
06:44PM 39.6220 -75.6730 42° Northeast 415 478 21,500 -1,560 Descending FlightAware
06:44PM 39.6740 -75.6120 42° Northeast 411 473 20,600 -1,560 Descending FlightAware
06:45PM 39.7240 -75.5520 43° Northeast 403 464 19,700 -1,980 Descending FlightAware
06:45PM 39.7710 -75.4940 43° Northeast 396 456 18,300 -2,280 Descending FlightAware
06:46PM 39.8210 -75.4350 42° Northeast 386 444 17,000 -1,860 Descending FlightAware
06:47PM 39.8630 -75.3840 43° Northeast 377 434 16,200 -1,740 Descending FlightAware
06:47PM 39.9060 -75.3310 43° Northeast 374 430 15,100 -2,040 Descending FlightAware
06:48PM 39.9530 -75.2750 42° Northeast 367 422 13,800 -2,040 Descending FlightAware
06:48PM 39.9940 -75.2240 44° Northeast 365 420 12,700 -1,920 Descending FlightAware
06:49PM 40.0400 -75.1680 43° Northeast 355 409 11,500 -1,680 Descending FlightAware
06:50PM 40.0790 -75.1210 43° Northeast 335 386 10,800 -660 Descending FlightAware
06:50PM 40.1160 -75.0760 43° Northeast 300 345 10,800 -360 Level FlightAware
06:51PM 40.1500 -75.0330 44° Northeast 288 331 10,400 -1,020 Descending FlightAware
06:51PM 40.1690 -75.0100 43° Northeast 288 331 9,900 -1,680 Descending FlightAware
06:51PM 40.1900 -74.9850 42° Northeast 287 330 9,300 -1,800 Descending FlightAware
06:52PM 40.2100 -74.9600 44° Northeast 285 328 8,700 -1,560 Descending FlightAware
06:52PM 40.2290 -74.9370 43° Northeast 284 327 8,300 -1,140 Descending FlightAware
06:52PM 40.2520 -74.9080 44° Northeast 284 327 7,900 -840 Descending FlightAware
06:53PM 40.2690 -74.8850 46° Northeast 278 320 7,700 -360 Descending FlightAware
06:53PM 40.2850 -74.8620 48° Northeast 263 303 7,700 -360 Level FlightAware
06:53PM 40.3000 -74.8410 47° Northeast 256 295 7,500 -780 Descending FlightAware
06:54PM 40.3120 -74.8250 45° Northeast 253 291 7,300 -840 Descending FlightAware
06:54PM 40.3290 -74.7980 50° Northeast 248 285 7,000 -900 Descending FlightAware
06:54PM 40.3410 -74.7740 57° Northeast 241 277 6,700 -1,020 Descending FlightAware
06:55PM 40.3520 -74.7510 58° Northeast 237 273 6,400 -900 Descending FlightAware
06:55PM 40.3640 -74.7260 58° Northeast 234 269 6,100 -1,020 Descending FlightAware
06:55PM 40.3700 -74.7140 57° Northeast 233 268 5,900 -540 Descending FlightAware
06:56PM 40.3850 -74.6830 58° Northeast 231 266 5,800 -180 Descending FlightAware
06:56PM 40.3990 -74.6600 51° Northeast 232 267 5,800  Level FlightAware
06:56PM 40.4080 -74.6550 23° Northeast 233 268 5,800  Level FlightAware
06:56PM 40.4160 -74.6540 North 234 269 5,800  Level FlightAware
06:57PM 40.4360 -74.6550 358° North 232 267 5,800  Level FlightAware
06:57PM 40.4570 -74.6560 358° North 232 267 5,800  Level FlightAware
06:57PM 40.4760 -74.6570 358° North 232 267 5,800  Level FlightAware
06:58PM 40.5070 -74.6530 North 232 267 5,800  Level FlightAware
06:58PM 40.5230 -74.6510 North 232 267 5,800  Level FlightAware
06:58PM 40.5450 -74.6470 North 232 267 5,800  Level FlightAware
06:59PM 40.5650 -74.6430 North 232 267 5,800  Level FlightAware
06:59PM 40.5870 -74.6400 North 232 267 5,800  Level FlightAware
06:59PM 40.6140 -74.6350 North 233 268 5,800  Level FlightAware
07:00PM 40.6290 -74.6320 North 233 268 5,800  Level FlightAware
07:00PM 40.6580 -74.6280 North 233 268 5,800  Level FlightAware
07:00PM 40.6790 -74.6240 North 233 268 5,800  Level FlightAware
07:01PM 40.7010 -74.6200 North 233 268 5,800  Level FlightAware
07:01PM 40.7160 -74.6170 North 233 268 5,800  Level FlightAware
07:01PM 40.7400 -74.6130 North 234 269 5,800  Level FlightAware
07:02PM 40.7610 -74.6090 North 233 268 5,800  Level FlightAware
07:02PM 40.7750 -74.6060 North 233 268 5,800  Level FlightAware
07:02PM 40.8070 -74.6000 North 232 267 5,800  Level FlightAware
07:03PM 40.8190 -74.5980 North 232 267 5,800  Level FlightAware
07:03PM 40.8430 -74.5940 North 231 266 5,800  Level FlightAware
07:03PM 40.8630 -74.5900 North 231 266 5,800  Level FlightAware
07:04PM 40.8810 -74.5870 North 231 266 5,800 -1,080 Level FlightAware
07:04PM 40.9160 -74.5810 North 230 265 5,000 -1,200 Descending FlightAware
07:04PM 40.9340 -74.5780 North 229 264 4,800 -360 Descending FlightAware
07:05PM 40.9510 -74.5750 North 228 262 4,800  Level FlightAware
07:05PM 40.9860 -74.5680 North 228 262 4,800  Level FlightAware
07:05PM 41.0020 -74.5660 North 229 264 4,800  Level FlightAware
07:06PM 41.0260 -74.5620 North 229 264 4,800  Level FlightAware
07:06PM 41.0450 -74.5580 North 229 264 4,800  Level FlightAware
07:06PM 41.0600 -74.5530 14° North 229 264 4,800  Level FlightAware
07:06PM 41.0650 -74.5470 42° Northeast 230 265 4,800  Level FlightAware
07:07PM 41.0700 -74.5390 50° Northeast 231 266 4,800  Level FlightAware
07:07PM 41.0830 -74.5129 57° Northeast 231 266 4,800  Level FlightAware ADS-B
07:07PM 41.0922 -74.4937 58° Northeast 231 266 4,800  Level FlightAware ADS-B
07:07PM 41.1009 -74.4754 58° Northeast 231 266 4,800  Level FlightAware ADS-B
07:08PM 41.1098 -74.4568 58° Northeast 231 266 4,800  Level FlightAware ADS-B
07:09PM 41.1360 -74.4010 58° Northeast 231 266 4,800  Level FlightAware
07:09PM 41.1480 -74.3780 55° Northeast 219 252 4,800  Level FlightAware
07:09PM 41.1539 -74.3661 57° Northeast 231 266 4,800  Level FlightAware ADS-B
07:10PM 41.1700 -74.3360 55° Northeast 198 228 4,800  Level FlightAware
07:10PM 41.1810 -74.3140 56° Northeast 197 227 4,800  Level FlightAware
07:10PM 41.1830 -74.3060 72° East 198 228 4,800  Level FlightAware
07:10PM 41.1820 -74.2910 95° East 196 226 4,800  Level FlightAware
07:10PM 41.1790 -74.2820 114° Southeast 195 224 4,800  Level FlightAware
07:10PM 41.1760 -74.2780 135° Southeast 196 226 4,800  Level FlightAware
07:11PM 41.1590 -74.2630 146° Southeast 196 226 4,800  Level FlightAware
07:11PM 41.1440 -74.2500 147° Southeast 195 224 4,800  Level FlightAware
07:11PM 41.1320 -74.2390 145° Southeast 196 226 4,800  Level FlightAware
07:12PM 41.1170 -74.2260 147° Southeast 196 226 4,800  Level FlightAware
07:12PM 41.1060 -74.2160 146° Southeast 196 226 4,800  Level FlightAware
07:12PM 41.0900 -74.2020 147° Southeast 196 226 4,800  Level FlightAware
07:12PM 41.0832 -74.1959 146° Southeast 196 226 4,800  Level FlightAware ADS-B
07:13PM 41.0598 -74.1751 146° Southeast 196 226 4,800  Level FlightAware ADS-B
07:14PM 41.0350 -74.1534 147° Southeast 196 226 4,800  Level FlightAware ADS-B
07:14PM 41.0141 -74.1351 147° Southeast 196 226 4,800 -600 Level FlightAware ADS-B
07:14PM 40.9932 -74.1168 147° Southeast 196 226 4,300 -1,140 Descending FlightAware ADS-B
07:15PM 40.9819 -74.1067 146° Southeast 195 224 4,000 -900 Descending FlightAware ADS-B
07:15PM 40.9678 -74.0942 146° Southeast 189 217 3,800 -720 Descending FlightAware ADS-B
07:15PM 40.9564 -74.0839 146° Southeast 189 217 3,600 -1,080 Descending FlightAware ADS-B
07:16PM 40.9427 -74.0711 145° Southeast 192 221 3,200 -1,080 Descending FlightAware ADS-B
07:16PM 40.9353 -74.0643 145° Southeast 190 219 3,100 -840 Descending FlightAware ADS-B
07:16PM 40.9317 -74.0615 150° Southeast 189 217 3,000 -1,200 Descending FlightAware ADS-B
07:16PM 40.9275 -74.0595 160° South 186 214 2,900 -720 Descending FlightAware ADS-B
07:16PM 40.9241 -74.0587 170° South 183 211 2,900 -300 Level FlightAware ADS-B
07:16PM 40.9092 -74.0568 174° South 182 209 2,800 -180 Descending FlightAware ADS-B
07:17PM 40.8940 -74.0551 175° South 184 212 2,800  Level FlightAware ADS-B
07:17PM 40.8803 -74.0533 174° South 185 213 2,800  Level FlightAware ADS-B
07:17PM 40.8747 -74.0533 180° South 185 213 2,800  Level FlightAware ADS-B
07:17PM 40.8696 -74.0543 188° South 184 212 2,800  Level FlightAware ADS-B
07:17PM 40.8603 -74.0582 198° South 181 208 2,800  Level FlightAware ADS-B
07:18PM 40.8491 -74.0645 203° Southwest 167 192 2,800  Level FlightAware ADS-B
07:18PM 40.8373 -74.0720 206° Southwest 161 185 2,800 -420 Level FlightAware ADS-B
07:18PM 40.8297 -74.0770 206° Southwest 163 188 2,600 -1,140 Descending FlightAware ADS-B
07:18PM 40.8195 -74.0838 207° Southwest 160 184 2,300 -840 Descending FlightAware ADS-B
07:19PM 40.7964 -74.0990 206° Southwest 158 182 1,900 -720 Descending FlightAware ADS-B
07:19PM 40.7858 -74.1054 205° Southwest 157 181 1,700 -780 Descending FlightAware ADS-B
07:19PM 40.7757 -74.1118 206° Southwest 155 178 1,500 -840 Descending FlightAware ADS-B
07:20PM 40.7664 -74.1176 205° Southwest 136 157 1,300 -780 Descending FlightAware ADS-B
07:20PM 40.7570 -74.1236 206° Southwest 119 137 1,100 -720 Descending FlightAware ADS-B
07:20PM 40.7492 -74.1287 206° Southwest 118 136 900 -780 Descending FlightAware ADS-B
07:20PM 40.7416 -74.1335 206° Southwest 120 138 700 -600 Descending FlightAware ADS-B
07:21PM 40.7339 -74.1385 206° Southwest 120 138 600 -540 Descending FlightAware ADS-B
07:21PM 40.7180 -74.1480 204° Southwest 123 142 300 -600 Descending FlightAware
07:22PM 40.7060 -74.1560 207° Southwest 125 144 -720 Descending FlightAware
07:22PM 40.6934 -74.1642 206° Southwest 115 132  Level FlightAware ADS-B
07:23PM 40.6820 -74.1710 204° Southwest 115 132  Level FlightAware